createdAt,value
2023-09-29T00:01:46.364Z,16.40
2023-09-29T00:12:21.465Z,16.20
2023-09-29T00:22:58.190Z,16.20
2023-09-29T00:33:32.906Z,16.20
2023-09-29T00:44:08.010Z,16.10
2023-09-29T00:54:42.645Z,16.00
2023-09-29T01:05:17.639Z,16.00
2023-09-29T01:15:56.034Z,15.90
2023-09-29T01:26:30.934Z,15.90
2023-09-29T01:37:06.410Z,15.80
2023-09-29T01:47:44.520Z,15.70
2023-09-29T01:58:20.890Z,15.80
2023-09-29T02:08:57.834Z,15.90
2023-09-29T02:19:36.954Z,15.80
2023-09-29T02:30:13.039Z,15.70
2023-09-29T02:40:48.462Z,15.70
2023-09-29T02:51:23.257Z,15.70
2023-09-29T03:01:58.660Z,15.70
2023-09-29T03:12:33.755Z,15.80
2023-09-29T03:23:08.581Z,15.90
2023-09-29T03:33:43.757Z,15.80
2023-09-29T03:44:18.882Z,15.90
2023-09-29T03:54:54.264Z,16.00
2023-09-29T04:05:29.425Z,16.00
2023-09-29T04:16:07.985Z,16.10
2023-09-29T04:26:42.728Z,16.00
2023-09-29T04:37:17.553Z,16.00
2023-09-29T04:47:53.937Z,16.10
2023-09-29T04:58:29.014Z,16.20
2023-09-29T05:09:04.407Z,16.20
2023-09-29T05:19:39.417Z,16.30
2023-09-29T05:30:14.614Z,16.30
2023-09-29T05:40:52.125Z,16.30
2023-09-29T05:51:26.750Z,16.20
2023-09-29T06:02:16.485Z,16.30
2023-09-29T06:12:53.259Z,16.30
2023-09-29T06:23:28.715Z,16.50
2023-09-29T06:34:03.903Z,17.00
2023-09-29T06:44:38.905Z,17.30
2023-09-29T06:55:14.546Z,17.60
2023-09-29T07:05:49.895Z,17.70
2023-09-29T07:16:24.638Z,18.20
2023-09-29T07:26:59.783Z,18.70
2023-09-29T07:37:35.409Z,18.70
2023-09-29T07:48:10.278Z,18.80
2023-09-29T07:58:45.204Z,19.70
2023-09-29T08:09:20.546Z,20.20
2023-09-29T08:19:55.246Z,19.80
2023-09-29T08:30:30.678Z,20.80
2023-09-29T08:41:06.635Z,21.80
2023-09-29T08:51:47.430Z,21.70
2023-09-29T09:02:22.666Z,22.40
2023-09-29T09:12:58.681Z,22.80
2023-09-29T09:23:39.878Z,23.20
2023-09-29T09:34:14.949Z,23.70
2023-09-29T09:44:49.860Z,23.30
2023-09-29T09:55:38.613Z,23.80
2023-09-29T10:06:14.770Z,24.30
2023-09-29T10:16:49.779Z,24.90
2023-09-29T10:27:34.084Z,25.10
2023-09-29T10:38:13.894Z,25.60
2023-09-29T10:48:50.988Z,25.90
2023-09-29T10:59:25.917Z,26.70
2023-09-29T11:10:01.014Z,26.40
2023-09-29T11:20:36.199Z,26.70
2023-09-29T11:31:12.821Z,27.40
2023-09-29T11:41:48.193Z,27.40
2023-09-29T11:52:22.914Z,27.00
2023-09-29T12:02:58.582Z,26.40
2023-09-29T12:13:34.904Z,27.20
2023-09-29T12:24:09.904Z,27.30
2023-09-29T12:34:45.139Z,27.50
2023-09-29T12:45:24.556Z,27.20
2023-09-29T12:55:59.542Z,27.40
2023-09-29T13:06:34.680Z,26.80
2023-09-29T13:17:10.522Z,25.20
2023-09-29T13:27:45.464Z,24.40
2023-09-29T13:38:20.237Z,23.80
2023-09-29T13:48:55.430Z,23.70
2023-09-29T13:59:30.158Z,23.90
2023-09-29T14:10:05.519Z,24.40
2023-09-29T14:20:40.313Z,23.70
2023-09-29T14:31:16.056Z,23.50
2023-09-29T14:41:51.378Z,23.20
2023-09-29T14:52:26.947Z,23.10
2023-09-29T15:03:02.013Z,23.10
2023-09-29T15:13:37.488Z,23.00
2023-09-29T15:24:12.529Z,22.70
2023-09-29T15:34:48.550Z,22.50
2023-09-29T15:45:23.864Z,22.20
2023-09-29T15:55:59.062Z,22.10
2023-09-29T16:06:34.066Z,21.80
2023-09-29T16:17:09.538Z,21.70
2023-09-29T16:27:44.401Z,21.50
2023-09-29T16:38:19.379Z,21.30
2023-09-29T16:48:54.624Z,21.20
2023-09-29T16:59:29.654Z,21.00
2023-09-29T17:10:05.382Z,20.70
2023-09-29T17:20:40.480Z,20.50
2023-09-29T17:31:15.641Z,20.40
2023-09-29T17:41:50.867Z,20.20
2023-09-29T17:52:25.941Z,20.10
2023-09-29T18:03:00.804Z,20.10
2023-09-29T18:13:35.759Z,20.10
2023-09-29T18:24:10.934Z,20.00
2023-09-29T18:34:45.799Z,20.00
2023-09-29T18:45:20.898Z,19.80
2023-09-29T18:55:57.939Z,19.70
2023-09-29T19:06:32.966Z,19.60
2023-09-29T19:17:09.119Z,19.50
2023-09-29T19:27:45.293Z,19.50
2023-09-29T19:38:20.386Z,19.60
2023-09-29T19:48:55.784Z,19.70
2023-09-29T19:59:30.927Z,19.60
2023-09-29T20:10:07.732Z,19.60
2023-09-29T20:20:42.813Z,19.70
2023-09-29T20:31:17.967Z,19.70
2023-09-29T20:41:52.806Z,19.70
2023-09-29T20:52:28.474Z,19.40
2023-09-29T21:03:04.805Z,19.20
2023-09-29T21:13:39.399Z,19.00
2023-09-29T21:24:17.138Z,19.00
2023-09-29T21:34:53.480Z,18.90
2023-09-29T21:45:30.327Z,18.70
2023-09-29T21:56:06.492Z,18.70
2023-09-29T22:06:41.946Z,18.60
2023-09-29T22:17:16.914Z,18.40
2023-09-29T22:27:51.674Z,18.40
2023-09-29T22:38:27.748Z,18.50
2023-09-29T22:49:02.588Z,18.40
2023-09-29T22:59:37.341Z,18.40
2023-09-29T23:10:15.525Z,18.20
2023-09-29T23:20:52.345Z,18.20
2023-09-29T23:31:27.509Z,18.10
2023-09-29T23:42:03.937Z,18.10
2023-09-29T23:52:39.677Z,17.90
